Time;durP1;ratioP1;P1;durP2;ratioP2;P2;SDS_P1;SDS_P2;PMS_P1;PMS_P2;Temp;Humidity;BMP_temperature;BMP_pressure;BME280_temperature;BME280_humidity;BME280_pressure;Samples;Min_cycle;Max_cycle;Signal;HPM_P1;HPM_P2
2023/10/06 00:00:50;;;;;;;21.80;9.52;;;12.60;99.90;;;;;;4997690;28;20034;-70
2023/10/06 00:03:16;;;;;;;21.73;9.07;;;12.60;99.90;;;;;;5001525;28;20101;-69
2023/10/06 00:05:42;;;;;;;19.13;8.25;;;12.60;99.90;;;;;;4996821;28;20045;-70
2023/10/06 00:08:10;;;;;;;21.40;9.48;;;12.50;99.90;;;;;;4997661;28;20030;-69
2023/10/06 00:10:44;;;;;;;20.38;9.75;;;12.50;99.90;;;;;;4998875;28;20038;-69
2023/10/06 00:13:18;;;;;;;20.45;9.82;;;12.50;99.90;;;;;;5003224;28;20092;-69
2023/10/06 00:15:45;;;;;;;21.92;10.23;;;12.50;99.90;;;;;;5006264;28;20040;-69
2023/10/06 00:18:19;;;;;;;24.20;10.48;;;12.50;99.90;;;;;;5002992;28;20090;-69
2023/10/06 00:20:57;;;;;;;22.80;11.00;;;12.60;99.90;;;;;;5008097;28;20053;-70
2023/10/06 00:23:27;;;;;;;25.27;11.57;;;12.60;99.90;;;;;;5003521;28;20360;-69
2023/10/06 00:25:57;;;;;;;23.33;11.90;;;12.60;99.90;;;;;;5004357;28;20104;-69
2023/10/06 00:28:27;;;;;;;26.45;11.23;;;12.70;99.90;;;;;;4997379;28;20049;-70
2023/10/06 00:30:57;;;;;;;32.13;12.10;;;12.70;99.90;;;;;;5003423;28;20034;-70
2023/10/06 00:33:26;;;;;;;28.55;12.52;;;12.70;99.90;;;;;;4998851;28;20034;-71
2023/10/06 00:35:51;;;;;;;25.85;12.25;;;12.70;99.90;;;;;;4998850;28;20033;-71
2023/10/06 00:38:17;;;;;;;25.35;12.68;;;12.60;99.90;;;;;;4994330;28;20034;-70
2023/10/06 00:40:51;;;;;;;27.88;13.15;;;12.60;99.90;;;;;;4998414;28;20386;-70
2023/10/06 00:43:36;;;;;;;28.52;12.30;;;12.60;99.90;;;;;;4995845;28;20032;-70
2023/10/06 00:46:09;;;;;;;25.35;11.75;;;12.60;99.90;;;;;;5002918;28;20049;-70
2023/10/06 00:48:40;;;;;;;28.85;12.93;;;12.60;99.90;;;;;;4995439;28;20327;-70
2023/10/06 00:51:13;;;;;;;29.98;13.10;;;12.50;99.90;;;;;;4999687;28;20048;-70
2023/10/06 00:53:41;;;;;;;29.55;13.48;;;12.60;99.90;;;;;;4993675;28;20117;-69
2023/10/06 00:56:15;;;;;;;30.00;14.38;;;12.50;99.90;;;;;;4997473;28;20040;-71
2023/10/06 00:58:41;;;;;;;28.98;12.90;;;12.50;99.90;;;;;;4992819;28;20048;-71
2023/10/06 01:01:21;;;;;;;28.85;12.75;;;12.50;99.90;;;;;;4999856;28;20034;-69
2023/10/06 01:04:08;;;;;;;28.17;12.88;;;12.40;99.90;;;;;;4994797;28;20038;-69
2023/10/06 01:06:35;;;;;;;31.95;13.90;;;12.40;99.90;;;;;;4996794;28;20091;-70
2023/10/06 01:09:12;;;;;;;27.73;13.25;;;12.30;99.90;;;;;;4991069;28;20080;-70
2023/10/06 01:11:51;;;;;;;28.67;14.05;;;12.30;99.90;;;;;;4995472;28;20022;-69
2023/10/06 01:14:36;;;;;;;28.90;13.65;;;12.30;99.90;;;;;;5000724;28;20037;-70
2023/10/06 01:17:14;;;;;;;29.70;13.27;;;12.20;99.90;;;;;;5004052;28;20161;-71
2023/10/06 01:19:47;;;;;;;27.40;14.00;;;12.20;99.90;;;;;;5007715;28;20109;-71
2023/10/06 01:22:24;;;;;;;26.33;13.05;;;12.20;99.90;;;;;;5008754;28;20022;-69
2023/10/06 01:24:53;;;;;;;31.48;13.98;;;12.10;99.90;;;;;;5001170;28;20035;-69
2023/10/06 01:27:21;;;;;;;27.83;13.52;;;12.10;99.90;;;;;;5009847;28;20025;-70
2023/10/06 01:29:51;;;;;;;29.15;13.80;;;12.10;99.90;;;;;;5001592;28;20065;-70
2023/10/06 01:32:17;;;;;;;33.10;14.10;;;12.10;99.90;;;;;;4998932;28;20474;-69
2023/10/06 01:34:44;;;;;;;34.90;14.02;;;12.10;99.90;;;;;;4994658;28;20117;-72
2023/10/06 01:37:09;;;;;;;31.02;13.70;;;12.10;99.90;;;;;;4994378;28;20040;-69
2023/10/06 01:39:35;;;;;;;30.75;13.65;;;12.10;99.90;;;;;;4997708;28;20397;-73
2023/10/06 01:42:07;;;;;;;27.02;13.60;;;12.10;99.90;;;;;;4996153;28;20029;-70
2023/10/06 01:44:34;;;;;;;32.13;15.23;;;12.10;99.90;;;;;;4991038;28;20046;-72
2023/10/06 01:47:01;;;;;;;35.58;15.52;;;12.10;99.90;;;;;;4998501;28;20030;-70
2023/10/06 01:49:27;;;;;;;34.80;14.27;;;12.10;99.90;;;;;;4993622;28;20045;-69
2023/10/06 01:51:53;;;;;;;25.48;13.85;;;12.10;99.90;;;;;;4996056;28;20481;-69
2023/10/06 01:54:25;;;;;;;33.00;13.90;;;12.10;99.90;;;;;;4995446;28;20034;-71
2023/10/06 01:56:53;;;;;;;31.98;15.05;;;12.10;99.90;;;;;;4998656;28;20116;-69
2023/10/06 01:59:19;;;;;;;32.50;13.95;;;12.00;99.90;;;;;;4993098;28;20026;-71
2023/10/06 02:01:45;;;;;;;33.08;15.23;;;12.00;99.90;;;;;;5002728;28;20037;-70
2023/10/06 02:04:13;;;;;;;34.75;15.27;;;12.00;99.90;;;;;;4997425;28;20431;-71
2023/10/06 02:06:48;;;;;;;30.48;14.52;;;12.00;99.90;;;;;;5013961;28;20034;-69
2023/10/06 02:09:20;;;;;;;37.17;14.90;;;12.00;99.90;;;;;;4998436;28;20120;-71
2023/10/06 02:11:50;;;;;;;31.73;15.63;;;12.00;99.90;;;;;;5001590;28;20482;-70
2023/10/06 02:14:17;;;;;;;35.05;16.90;;;12.00;99.90;;;;;;5008874;28;20033;-70
2023/10/06 02:16:48;;;;;;;35.08;15.15;;;12.00;99.90;;;;;;5013940;28;20037;-70
2023/10/06 02:19:16;;;;;;;34.03;15.57;;;12.00;99.90;;;;;;5011727;28;20101;-70
2023/10/06 02:21:44;;;;;;;35.45;15.82;;;12.00;99.90;;;;;;5011658;28;20033;-69
2023/10/06 02:24:10;;;;;;;39.25;16.10;;;12.00;99.90;;;;;;5005617;28;20102;-69
2023/10/06 02:26:36;;;;;;;31.02;15.57;;;12.00;99.90;;;;;;5002355;28;20054;-69
2023/10/06 02:29:02;;;;;;;39.63;16.83;;;12.00;99.90;;;;;;5009640;28;20034;-69
2023/10/06 02:31:28;;;;;;;38.08;17.40;;;12.10;99.90;;;;;;5010261;28;20120;-69
2023/10/06 02:33:53;;;;;;;38.78;17.25;;;12.10;99.90;;;;;;5001161;28;20538;-69
2023/10/06 02:36:21;;;;;;;35.90;16.75;;;12.10;99.90;;;;;;5004106;28;20100;-70
2023/10/06 02:38:47;;;;;;;38.05;16.95;;;12.10;99.90;;;;;;4993562;28;20425;-70
2023/10/06 02:41:18;;;;;;;38.00;16.70;;;12.10;99.90;;;;;;4997529;28;20025;-69
2023/10/06 02:43:46;;;;;;;34.40;17.42;;;12.10;99.90;;;;;;4996172;28;20034;-71
2023/10/06 02:46:11;;;;;;;36.97;18.25;;;12.10;99.80;;;;;;5003205;28;20038;-69
2023/10/06 02:48:37;;;;;;;33.40;17.33;;;12.10;99.80;;;;;;5002392;28;20033;-70
2023/10/06 02:51:06;;;;;;;36.33;18.75;;;12.10;99.80;;;;;;5001729;28;20022;-69
2023/10/06 02:53:35;;;;;;;38.00;17.40;;;12.10;99.70;;;;;;4998964;28;20471;-69
2023/10/06 02:56:06;;;;;;;39.60;19.10;;;12.20;99.70;;;;;;4995075;28;20128;-69
2023/10/06 02:58:33;;;;;;;40.67;18.23;;;12.20;99.60;;;;;;4996578;28;20113;-71
2023/10/06 03:00:58;;;;;;;35.55;18.25;;;12.20;99.60;;;;;;5000587;28;20033;-70
2023/10/06 03:03:27;;;;;;;34.50;18.63;;;12.20;99.50;;;;;;5001587;28;20031;-72
2023/10/06 03:05:54;;;;;;;39.78;18.15;;;12.20;99.40;;;;;;4997370;28;20030;-70
2023/10/06 03:08:27;;;;;;;36.40;18.80;;;12.20;99.40;;;;;;4998396;28;20042;-71
2023/10/06 03:10:52;;;;;;;36.60;18.58;;;12.30;99.40;;;;;;4998705;28;20530;-70
2023/10/06 03:13:24;;;;;;;36.60;18.92;;;12.30;99.30;;;;;;4999935;28;20041;-73
2023/10/06 03:15:50;;;;;;;34.45;18.75;;;12.30;99.20;;;;;;4999847;28;20055;-70
2023/10/06 03:18:16;;;;;;;35.55;19.30;;;12.30;99.00;;;;;;5001566;28;20038;-70
2023/10/06 03:23:38;;;;;;;33.17;18.38;;;12.30;98.90;;;;;;5003764;28;20104;-70
2023/10/06 03:25:58;;;;;;;33.70;17.58;;;12.30;99.00;;;;;;5003177;28;20042;-69
2023/10/06 03:28:31;;;;;;;35.20;18.50;;;12.40;98.90;;;;;;5009926;28;20449;-71
2023/10/06 03:30:59;;;;;;;35.08;18.17;;;12.40;98.80;;;;;;5008969;28;20087;-70
2023/10/06 03:33:24;;;;;;;32.10;17.92;;;12.30;98.80;;;;;;5001138;28;20410;-70
2023/10/06 03:35:50;;;;;;;33.13;17.30;;;12.30;98.80;;;;;;5000773;28;20038;-70
2023/10/06 03:46:10;;;;;;;29.80;16.23;;;12.30;98.70;;;;;;5000716;28;20041;-69
2023/10/06 03:48:37;;;;;;;29.08;16.45;;;12.30;98.60;;;;;;4999710;28;20022;-70
2023/10/06 03:51:04;;;;;;;23.55;14.60;;;12.30;98.50;;;;;;5003458;28;20030;-71
2023/10/06 03:53:29;;;;;;;23.67;15.13;;;12.30;98.50;;;;;;4996136;28;20386;-71
2023/10/06 03:55:56;;;;;;;27.77;14.65;;;12.30;98.40;;;;;;4999496;28;20030;-70
2023/10/06 03:58:25;;;;;;;22.98;14.88;;;12.30;98.40;;;;;;4997790;28;20109;-70
2023/10/06 04:00:52;;;;;;;22.98;13.65;;;12.30;98.40;;;;;;4995379;28;20057;-69
2023/10/06 04:03:18;;;;;;;27.30;13.75;;;12.40;98.10;;;;;;4993341;28;20641;-69
2023/10/06 04:05:44;;;;;;;18.65;13.18;;;12.30;97.90;;;;;;4997908;28;20029;-72
2023/10/06 04:08:15;;;;;;;20.70;12.98;;;12.40;97.50;;;;;;4996837;28;20023;-70
2023/10/06 04:10:45;;;;;;;17.55;10.48;;;12.50;97.40;;;;;;4995763;28;20030;-70
2023/10/06 04:13:12;;;;;;;20.25;11.40;;;12.40;97.40;;;;;;4997660;28;20044;-69
2023/10/06 04:15:38;;;;;;;19.13;11.27;;;12.50;97.30;;;;;;4996261;28;20029;-70
2023/10/06 04:18:10;;;;;;;17.13;11.07;;;12.40;97.30;;;;;;4995985;28;20030;-71
2023/10/06 04:20:42;;;;;;;16.77;10.32;;;12.40;97.40;;;;;;4999022;28;20092;-70
2023/10/06 04:23:11;;;;;;;20.00;10.85;;;12.40;97.50;;;;;;4993779;28;20030;-70
2023/10/06 04:25:37;;;;;;;17.58;9.13;;;12.40;97.30;;;;;;4999818;28;20567;-70
2023/10/06 04:28:11;;;;;;;22.95;10.02;;;12.40;97.40;;;;;;4996493;28;20053;-69
2023/10/06 04:30:37;;;;;;;16.70;9.70;;;12.40;97.50;;;;;;4999228;28;20402;-67
2023/10/06 04:33:08;;;;;;;15.00;9.05;;;12.30;97.50;;;;;;4996600;28;20105;-67
2023/10/06 04:35:34;;;;;;;16.05;9.20;;;12.30;97.60;;;;;;4994228;28;20670;-67
2023/10/06 04:38:00;;;;;;;13.32;8.55;;;12.30;97.50;;;;;;4996391;28;20352;-67
2023/10/06 04:40:29;;;;;;;20.20;8.38;;;12.30;97.50;;;;;;4994514;28;22782;-66
2023/10/06 04:42:56;;;;;;;16.20;8.40;;;12.40;97.40;;;;;;4996424;28;20091;-66
2023/10/06 04:45:23;;;;;;;14.48;8.57;;;12.40;97.30;;;;;;4994202;28;20041;-70
2023/10/06 04:47:48;;;;;;;15.70;8.52;;;12.40;97.30;;;;;;4994504;28;20046;-67
2023/10/06 04:50:15;;;;;;;15.68;8.48;;;12.30;97.30;;;;;;4994493;28;20030;-69
2023/10/06 04:52:46;;;;;;;16.50;8.07;;;12.30;97.30;;;;;;4998997;28;20494;-66
2023/10/06 04:55:13;;;;;;;18.88;8.50;;;12.30;97.40;;;;;;4996843;28;20038;-67
2023/10/06 04:57:40;;;;;;;14.07;7.95;;;12.30;97.50;;;;;;5002359;28;20077;-67
2023/10/06 05:00:13;;;;;;;18.27;8.40;;;12.30;97.50;;;;;;5003335;28;20076;-67
2023/10/06 05:02:42;;;;;;;15.88;8.45;;;12.30;97.50;;;;;;5010033;28;20145;-66
2023/10/06 05:05:10;;;;;;;16.52;8.32;;;12.30;97.50;;;;;;5003890;28;20036;-67
2023/10/06 05:07:36;;;;;;;17.77;8.80;;;12.30;97.50;;;;;;4999314;28;20486;-69
2023/10/06 05:10:02;;;;;;;14.20;8.15;;;12.30;97.40;;;;;;5004934;28;20025;-67
2023/10/06 05:12:27;;;;;;;15.43;7.70;;;12.30;97.40;;;;;;5002006;28;20061;-66
2023/10/06 05:14:53;;;;;;;15.77;8.77;;;12.30;97.20;;;;;;4996364;28;20176;-67
2023/10/06 05:17:21;;;;;;;14.65;7.80;;;12.30;97.30;;;;;;4999409;28;20041;-69
2023/10/06 05:19:48;;;;;;;14.27;7.63;;;12.30;97.40;;;;;;5007524;28;20029;-67
2023/10/06 05:22:14;;;;;;;17.38;8.65;;;12.30;97.30;;;;;;5006816;28;20041;-68
2023/10/06 05:24:40;;;;;;;16.58;8.25;;;12.30;97.20;;;;;;5004767;28;20378;-67
2023/10/06 05:27:05;;;;;;;13.35;7.85;;;12.40;97.00;;;;;;4996789;28;20043;-67
2023/10/06 05:29:35;;;;;;;14.57;7.95;;;12.40;96.90;;;;;;5004669;28;20112;-67
2023/10/06 05:32:02;;;;;;;13.93;7.73;;;12.40;96.80;;;;;;4991682;28;20058;-67
2023/10/06 05:34:29;;;;;;;16.00;8.52;;;12.40;96.90;;;;;;5005654;28;20045;-67
2023/10/06 05:36:55;;;;;;;12.10;7.25;;;12.40;96.80;;;;;;4995020;28;20028;-67
2023/10/06 05:39:21;;;;;;;17.05;7.28;;;12.30;96.80;;;;;;4998539;28;20260;-67
2023/10/06 05:41:47;;;;;;;11.48;7.35;;;12.30;97.00;;;;;;5005109;28;20027;-67
2023/10/06 05:44:13;;;;;;;15.73;7.75;;;12.40;96.90;;;;;;5003691;28;20080;-68
2023/10/06 05:46:41;;;;;;;14.20;7.60;;;12.40;96.90;;;;;;5010360;28;20128;-68
2023/10/06 05:49:08;;;;;;;18.95;8.60;;;12.40;97.00;;;;;;5007580;28;20482;-66
2023/10/06 05:51:38;;;;;;;16.35;8.18;;;12.40;96.70;;;;;;5007533;28;20375;-67
2023/10/06 05:54:09;;;;;;;16.42;8.13;;;12.40;96.60;;;;;;5007154;28;20038;-68
2023/10/06 05:56:37;;;;;;;14.63;7.53;;;12.50;96.20;;;;;;5015618;28;20462;-67
2023/10/06 05:59:05;;;;;;;11.00;6.57;;;12.50;96.30;;;;;;5011009;28;20037;-68
2023/10/06 06:01:31;;;;;;;15.25;7.22;;;12.50;96.20;;;;;;5008273;28;20026;-67
2023/10/06 06:03:57;;;;;;;13.32;7.20;;;12.60;95.80;;;;;;5009397;28;20084;-67
2023/10/06 06:06:24;;;;;;;16.08;6.65;;;12.60;95.70;;;;;;5007508;28;20026;-67
2023/10/06 06:08:51;;;;;;;10.57;6.88;;;12.60;95.90;;;;;;5008864;28;20026;-67
2023/10/06 06:11:17;;;;;;;11.75;6.45;;;12.60;95.80;;;;;;5002073;28;20113;-67
2023/10/06 06:13:43;;;;;;;16.27;6.43;;;12.60;95.70;;;;;;5003392;28;20113;-67
2023/10/06 06:16:08;;;;;;;16.75;6.80;;;12.70;95.60;;;;;;5009205;28;20029;-67
2023/10/06 06:18:34;;;;;;;14.75;6.53;;;12.70;95.40;;;;;;5012145;28;20462;-67
2023/10/06 06:21:02;;;;;;;11.40;5.72;;;12.70;95.60;;;;;;5005874;28;20168;-67
2023/10/06 06:23:35;;;;;;;12.73;5.60;;;12.70;95.40;;;;;;5005877;28;20044;-67
2023/10/06 06:26:00;;;;;;;12.02;6.25;;;12.80;95.30;;;;;;5008505;28;20046;-67
2023/10/06 06:28:26;;;;;;;12.02;5.50;;;12.80;95.20;;;;;;5008207;28;20034;-66
2023/10/06 06:30:51;;;;;;;16.15;6.07;;;12.90;95.00;;;;;;5013611;28;20056;-66
2023/10/06 06:33:22;;;;;;;15.25;5.18;;;12.90;95.00;;;;;;5010255;28;20036;-67
2023/10/06 06:35:49;;;;;;;13.20;5.53;;;13.00;95.10;;;;;;5003107;28;20038;-68
2023/10/06 06:38:17;;;;;;;12.77;5.40;;;13.00;94.80;;;;;;5003932;28;20576;-67
2023/10/06 06:40:43;;;;;;;11.20;5.18;;;13.00;94.30;;;;;;5000913;28;20041;-66
2023/10/06 06:43:12;;;;;;;12.18;5.05;;;13.00;94.70;;;;;;5007826;28;20564;-69
2023/10/06 06:45:41;;;;;;;13.15;5.03;;;13.00;94.50;;;;;;5005651;28;20018;-67
2023/10/06 06:48:16;;;;;;;13.25;5.75;;;13.00;94.50;;;;;;5010550;28;20558;-67
2023/10/06 06:50:46;;;;;;;11.48;5.38;;;13.10;94.10;;;;;;5005064;28;20049;-68
2023/10/06 06:53:11;;;;;;;10.82;5.25;;;13.10;94.30;;;;;;5006008;28;20142;-67
2023/10/06 06:55:37;;;;;;;10.32;5.10;;;13.10;94.40;;;;;;5011658;28;20034;-66
2023/10/06 06:58:10;;;;;;;15.73;5.15;;;13.10;94.20;;;;;;5008183;28;20054;-67
2023/10/06 07:00:39;;;;;;;13.05;5.40;;;13.10;94.50;;;;;;5010382;28;20080;-67
2023/10/06 07:03:05;;;;;;;10.25;4.88;;;13.10;94.10;;;;;;5006338;28;20462;-66
2023/10/06 07:05:30;;;;;;;16.42;5.07;;;13.10;93.80;;;;;;5009509;28;20038;-66
2023/10/06 07:07:56;;;;;;;13.63;5.45;;;13.10;93.60;;;;;;5001784;28;20371;-68
2023/10/06 07:10:22;;;;;;;9.73;4.95;;;13.10;93.90;;;;;;5012072;28;20145;-70
2023/10/06 07:12:50;;;;;;;8.27;5.03;;;13.10;94.40;;;;;;5008358;28;20064;-70
2023/10/06 07:15:20;;;;;;;10.05;5.13;;;13.10;94.70;;;;;;5006557;28;20042;-67
2023/10/06 07:17:53;;;;;;;10.70;4.70;;;13.10;94.80;;;;;;5007808;28;20076;-67
2023/10/06 07:20:24;;;;;;;9.80;4.88;;;13.10;94.50;;;;;;5008172;28;20140;-66
2023/10/06 07:22:53;;;;;;;11.38;4.80;;;13.20;94.40;;;;;;5008683;28;20022;-67
2023/10/06 07:25:20;;;;;;;9.73;4.65;;;13.30;93.80;;;;;;5010023;28;20046;-67
2023/10/06 07:27:48;;;;;;;10.70;4.32;;;13.30;94.00;;;;;;5008678;28;20451;-69
2023/10/06 07:30:14;;;;;;;15.60;5.00;;;13.40;94.00;;;;;;4995605;28;20026;-67
2023/10/06 07:32:41;;;;;;;14.77;4.78;;;13.50;93.50;;;;;;5011345;28;20053;-67
2023/10/06 07:35:14;;;;;;;11.18;4.72;;;13.50;93.30;;;;;;5002862;28;20034;-67
2023/10/06 07:37:51;;;;;;;11.18;3.97;;;13.50;93.10;;;;;;5006517;28;20049;-70
2023/10/06 07:40:21;;;;;;;9.43;4.65;;;13.60;93.20;;;;;;5010337;28;20108;-66
2023/10/06 07:42:51;;;;;;;8.65;4.22;;;13.60;93.20;;;;;;5009379;28;20057;-66
2023/10/06 07:45:18;;;;;;;8.85;4.05;;;13.60;92.70;;;;;;5008702;28;20112;-68
2023/10/06 07:47:44;;;;;;;8.98;3.47;;;13.70;92.30;;;;;;5008589;28;20045;-67
2023/10/06 07:50:14;;;;;;;8.57;3.88;;;13.70;92.40;;;;;;5005062;28;20620;-67
2023/10/06 07:52:44;;;;;;;12.50;4.25;;;13.80;92.50;;;;;;5003963;28;20034;-67
2023/10/06 07:55:10;;;;;;;9.05;3.40;;;13.70;92.10;;;;;;5007500;28;20034;-67
2023/10/06 07:57:45;;;;;;;9.27;4.05;;;13.80;92.30;;;;;;5010657;28;20084;-68
2023/10/06 08:00:18;;;;;;;8.38;3.70;;;13.80;92.30;;;;;;5009687;28;20523;-69
2023/10/06 08:02:44;;;;;;;6.82;3.20;;;13.70;92.00;;;;;;5022267;28;20156;-66
2023/10/06 08:05:11;;;;;;;6.60;3.47;;;13.70;92.30;;;;;;5009042;28;20041;-67
2023/10/06 08:07:42;;;;;;;8.48;3.80;;;13.60;92.60;;;;;;5011176;28;20030;-69
2023/10/06 08:10:13;;;;;;;7.85;3.45;;;13.60;92.80;;;;;;5011147;28;20519;-67
2023/10/06 08:12:43;;;;;;;;;;;13.60;93.30;;;;;;5011018;28;20033;-68
2023/10/06 08:15:09;;;;;;;7.47;3.60;;;13.60;93.40;;;;;;5001241;28;20305;-66
2023/10/06 08:17:38;;;;;;;7.72;3.53;;;13.50;93.40;;;;;;5010388;28;20076;-67
2023/10/06 08:20:12;;;;;;;10.75;3.40;;;13.60;93.10;;;;;;5005588;28;20470;-67
2023/10/06 08:22:38;;;;;;;11.23;3.58;;;13.60;93.20;;;;;;5005446;28;20087;-67
2023/10/06 08:25:05;;;;;;;9.57;4.50;;;13.60;92.70;;;;;;5011172;28;20056;-67
2023/10/06 08:27:35;;;;;;;9.30;3.60;;;13.60;92.70;;;;;;5009350;28;20037;-67
2023/10/06 08:30:01;;;;;;;11.35;3.50;;;;;;;;;;5008434;28;20038;-68
2023/10/06 08:32:27;;;;;;;10.48;3.67;;;13.70;92.30;;;;;;5001887;28;20030;-68
2023/10/06 08:34:53;;;;;;;9.43;3.20;;;13.80;92.70;;;;;;5005921;28;20096;-66
2023/10/06 08:37:19;;;;;;;8.98;3.47;;;13.80;92.40;;;;;;5005966;28;20022;-68
2023/10/06 08:39:46;;;;;;;7.00;2.97;;;13.80;92.30;;;;;;5010409;28;20455;-67
2023/10/06 08:42:15;;;;;;;8.00;3.45;;;13.80;92.10;;;;;;5008914;28;20480;-66
2023/10/06 08:44:41;;;;;;;9.85;3.75;;;13.90;92.30;;;;;;5003651;28;20030;-66
2023/10/06 08:47:12;;;;;;;8.55;3.38;;;14.00;92.10;;;;;;5008417;28;20036;-66
2023/10/06 08:49:40;;;;;;;8.35;3.35;;;14.00;91.90;;;;;;5009686;28;20034;-67
2023/10/06 08:52:09;;;;;;;10.48;3.17;;;14.10;91.80;;;;;;5008430;28;20046;-67
2023/10/06 08:54:36;;;;;;;8.68;3.60;;;14.20;91.90;;;;;;5008861;28;20482;-67
2023/10/06 08:57:03;;;;;;;11.05;3.40;;;14.20;91.20;;;;;;5010463;28;20030;-68
2023/10/06 08:59:31;;;;;;;9.60;3.58;;;14.20;90.90;;;;;;5009144;28;20128;-67
2023/10/06 09:01:59;;;;;;;11.55;3.80;;;14.20;91.00;;;;;;5010424;28;20238;-67
2023/10/06 09:04:33;;;;;;;8.57;3.15;;;14.20;91.40;;;;;;5005665;28;20433;-68
2023/10/06 09:07:12;;;;;;;9.13;3.15;;;14.30;91.20;;;;;;5002795;28;20035;-67
2023/10/06 09:09:42;;;;;;;7.65;3.00;;;14.30;91.00;;;;;;5005706;28;20256;-67
2023/10/06 09:12:24;;;;;;;6.88;3.22;;;14.40;90.70;;;;;;5008816;28;20101;-67
2023/10/06 09:14:54;;;;;;;6.38;2.53;;;14.50;90.20;;;;;;5006145;28;20121;-67
2023/10/06 09:17:33;;;;;;;7.55;2.60;;;14.60;89.70;;;;;;5000433;28;20022;-67
2023/10/06 09:20:00;;;;;;;10.82;2.92;;;14.70;89.40;;;;;;5008872;28;20056;-67
2023/10/06 09:22:29;;;;;;;8.40;2.58;;;14.70;89.50;;;;;;5026419;28;20447;-67
2023/10/06 09:25:00;;;;;;;8.18;3.30;;;14.80;89.30;;;;;;5013867;28;20054;-67
2023/10/06 09:27:25;;;;;;;;;;;14.70;89.40;;;;;;5012612;28;20072;-67
2023/10/06 09:29:59;;;;;;;6.85;2.80;;;14.70;90.20;;;;;;5011363;28;19952;-67
2023/10/06 09:32:25;;;;;;;7.93;2.78;;;14.60;91.10;;;;;;5012281;28;20518;-67
2023/10/06 09:34:53;;;;;;;7.40;3.28;;;14.40;92.20;;;;;;5013665;28;20075;-66
2023/10/06 09:37:20;;;;;;;10.00;2.85;;;14.20;92.90;;;;;;5016113;28;20032;-69
2023/10/06 09:39:56;;;;;;;9.73;3.40;;;14.10;93.70;;;;;;5007441;28;20034;-68
2023/10/06 09:42:26;;;;;;;8.20;3.50;;;14.00;94.30;;;;;;5007235;28;20021;-67
2023/10/06 09:45:05;;;;;;;8.50;3.63;;;13.90;94.50;;;;;;5010742;28;20056;-68
2023/10/06 09:47:35;;;;;;;6.78;3.15;;;13.90;94.80;;;;;;5013121;28;20416;-67
2023/10/06 09:50:02;;;;;;;8.38;3.85;;;13.90;94.90;;;;;;5009564;28;20034;-67
2023/10/06 09:52:31;;;;;;;6.60;3.67;;;13.80;95.20;;;;;;5007961;28;20042;-66
2023/10/06 09:54:57;;;;;;;10.90;3.80;;;13.80;95.10;;;;;;5009718;28;20027;-67
2023/10/06 09:57:24;;;;;;;11.25;3.50;;;13.80;95.10;;;;;;5013576;28;20022;-68
2023/10/06 09:59:55;;;;;;;10.65;3.92;;;13.80;95.40;;;;;;5007666;28;20117;-67
2023/10/06 10:02:21;;;;;;;7.90;3.10;;;13.80;95.90;;;;;;5011624;28;20037;-67
2023/10/06 10:04:48;;;;;;;9.02;3.40;;;13.60;96.00;;;;;;4997998;28;20049;-67
2023/10/06 10:07:16;;;;;;;8.43;3.45;;;13.60;96.50;;;;;;5013085;28;20038;-68
2023/10/06 10:09:43;;;;;;;8.02;3.85;;;13.50;96.80;;;;;;5009623;28;20028;-68
2023/10/06 10:12:27;;;;;;;12.27;4.05;;;13.60;97.30;;;;;;5008509;28;20141;-68
2023/10/06 10:15:12;;;;;;;11.23;4.28;;;13.50;97.50;;;;;;5007569;28;20443;-68
2023/10/06 10:17:54;;;;;;;8.85;4.43;;;13.50;97.60;;;;;;5004983;28;20071;-68
2023/10/06 10:20:24;;;;;;;10.32;4.28;;;13.40;97.80;;;;;;5007610;28;20347;-68
2023/10/06 10:22:52;;;;;;;10.32;3.85;;;13.40;97.80;;;;;;5008372;28;20262;-69
2023/10/06 10:25:18;;;;;;;10.20;4.97;;;13.40;98.00;;;;;;5010590;28;20046;-68
2023/10/06 10:27:44;;;;;;;9.10;4.10;;;13.40;98.00;;;;;;5011713;28;20044;-68
2023/10/06 10:30:12;;;;;;;9.65;4.22;;;13.40;98.20;;;;;;5010328;28;20690;-70
2023/10/06 10:32:42;;;;;;;10.85;4.10;;;13.40;98.50;;;;;;5010475;28;20120;-69
2023/10/06 10:35:12;;;;;;;12.65;4.68;;;13.30;98.50;;;;;;5006818;28;20033;-68
2023/10/06 10:37:58;;;;;;;15.65;5.10;;;13.30;98.50;;;;;;5002653;28;20042;-68
2023/10/06 10:40:29;;;;;;;10.20;4.97;;;13.30;98.60;;;;;;5006012;28;20561;-68
2023/10/06 10:43:06;;;;;;;11.52;4.70;;;13.40;98.50;;;;;;5002973;28;20164;-68
2023/10/06 10:45:36;;;;;;;11.25;4.40;;;13.30;98.40;;;;;;5007254;28;20033;-69
2023/10/06 10:48:17;;;;;;;7.50;4.07;;;13.40;98.30;;;;;;4996171;28;20037;-68
2023/10/06 10:51:05;;;;;;;9.48;4.38;;;13.40;98.10;;;;;;5003068;28;20038;-70
2023/10/06 10:53:34;;;;;;;10.95;4.90;;;13.40;98.10;;;;;;5002731;28;20049;-69
2023/10/06 10:56:01;;;;;;;8.57;4.00;;;13.50;98.20;;;;;;5022633;28;20466;-68
2023/10/06 10:58:42;;;;;;;11.27;4.57;;;13.50;98.30;;;;;;5004354;28;20033;-68
2023/10/06 11:01:31;;;;;;;10.73;4.25;;;13.40;98.50;;;;;;5008146;28;20030;-68
2023/10/06 11:04:21;;;;;;;10.30;5.20;;;13.30;98.50;;;;;;5004671;28;20040;-70
2023/10/06 11:06:48;;;;;;;13.68;4.65;;;13.30;98.70;;;;;;5003652;28;20029;-68
2023/10/06 11:09:37;;;;;;;10.57;4.97;;;13.30;98.70;;;;;;5003160;28;20037;-70
2023/10/06 11:12:09;;;;;;;11.60;4.63;;;13.30;98.80;;;;;;5009916;28;20534;-68
2023/10/06 11:14:40;;;;;;;10.98;5.00;;;13.30;98.90;;;;;;5010937;28;20430;-69
2023/10/06 11:17:07;;;;;;;9.65;4.28;;;13.30;99.00;;;;;;5002295;28;20038;-69
2023/10/06 11:19:34;;;;;;;12.85;5.15;;;13.40;99.10;;;;;;5000684;28;20026;-68
2023/10/06 11:22:10;;;;;;;10.48;4.90;;;13.30;99.10;;;;;;5008689;28;20030;-68
2023/10/06 11:24:36;;;;;;;8.77;4.43;;;13.50;99.00;;;;;;5026665;28;20482;-69
2023/10/06 11:27:22;;;;;;;11.60;5.07;;;13.50;98.90;;;;;;5010816;28;20026;-68
2023/10/06 11:29:51;;;;;;;9.75;5.20;;;13.50;98.80;;;;;;5006208;28;20171;-68
2023/10/06 11:32:17;;;;;;;8.68;5.25;;;13.50;98.70;;;;;;5003447;28;20129;-69
2023/10/06 11:34:44;;;;;;;8.98;5.25;;;13.60;98.80;;;;;;5008205;28;20494;-67
2023/10/06 11:37:11;;;;;;;12.40;5.60;;;13.60;98.70;;;;;;5003887;28;20038;-68
2023/10/06 11:39:37;;;;;;;10.07;5.38;;;13.60;98.70;;;;;;5002643;28;20036;-71
2023/10/06 11:42:25;;;;;;;8.82;4.53;;;13.70;98.60;;;;;;5009317;28;20038;-68
2023/10/06 11:44:54;;;;;;;10.40;5.47;;;13.80;98.30;;;;;;5009391;28;20029;-70
2023/10/06 11:47:40;;;;;;;11.50;5.35;;;14.00;98.40;;;;;;5005954;28;20118;-68
2023/10/06 11:50:07;;;;;;;10.85;5.10;;;14.10;98.10;;;;;;5008136;28;20045;-69
2023/10/06 11:52:33;;;;;;;13.38;6.30;;;14.30;97.90;;;;;;5005115;28;20073;-68
2023/10/06 11:55:01;;;;;;;10.93;4.93;;;14.30;97.30;;;;;;5008777;28;20124;-69
2023/10/06 11:57:47;;;;;;;8.07;4.75;;;14.40;97.20;;;;;;5006425;28;20128;-68
2023/10/06 12:00:19;;;;;;;11.73;4.80;;;14.50;96.80;;;;;;5007250;28;20030;-70
2023/10/06 12:02:51;;;;;;;10.70;3.95;;;14.60;96.70;;;;;;4998847;28;20049;-67
2023/10/06 12:05:18;;;;;;;8.00;4.20;;;14.60;95.90;;;;;;5002731;28;20037;-68
2023/10/06 12:07:45;;;;;;;9.20;4.32;;;14.80;95.90;;;;;;5008934;28;20026;-68
2023/10/06 12:10:11;;;;;;;9.32;3.97;;;15.00;95.30;;;;;;5001117;28;20022;-68
2023/10/06 12:12:36;;;;;;;7.85;3.67;;;15.20;94.20;;;;;;5007775;28;20026;-69
2023/10/06 12:15:02;;;;;;;10.98;3.45;;;15.30;93.70;;;;;;4995109;28;20042;-68
2023/10/06 12:17:28;;;;;;;9.23;3.40;;;15.30;94.00;;;;;;4997664;28;20502;-68
2023/10/06 12:19:53;;;;;;;7.80;3.03;;;15.20;93.60;;;;;;5008920;28;20069;-69
2023/10/06 12:22:20;;;;;;;7.18;3.45;;;15.30;93.90;;;;;;5000021;28;20463;-70
2023/10/06 12:24:45;;;;;;;6.63;3.22;;;15.30;93.80;;;;;;4998557;28;20390;-68
2023/10/06 12:27:11;;;;;;;11.70;3.75;;;15.40;92.80;;;;;;5000935;28;20133;-68
2023/10/06 12:29:37;;;;;;;8.15;2.75;;;15.60;93.10;;;;;;4997030;28;20057;-70
2023/10/06 12:32:02;;;;;;;7.88;3.20;;;15.80;91.80;;;;;;5005087;28;20511;-70
2023/10/06 12:34:28;;;;;;;6.57;3.20;;;15.80;91.90;;;;;;4998138;28;20053;-68
2023/10/06 12:37:01;;;;;;;6.22;2.58;;;15.80;92.30;;;;;;5004814;28;20478;-68
2023/10/06 12:39:34;;;;;;;8.80;3.30;;;15.80;92.40;;;;;;4997120;28;20034;-68
2023/10/06 12:42:03;;;;;;;7.10;2.83;;;15.70;92.10;;;;;;5003407;28;20208;-68
2023/10/06 12:44:29;;;;;;;8.88;2.45;;;15.80;92.10;;;;;;4996793;28;20034;-68
2023/10/06 12:46:56;;;;;;;8.63;2.63;;;15.80;91.50;;;;;;5001466;28;20022;-68
2023/10/06 12:49:23;;;;;;;8.05;2.75;;;15.80;91.40;;;;;;5001163;28;20049;-67
2023/10/06 12:51:51;;;;;;;10.65;3.15;;;15.80;91.60;;;;;;4996334;28;20068;-69
2023/10/06 12:54:17;;;;;;;5.88;2.55;;;15.90;91.40;;;;;;5001486;28;20034;-68
2023/10/06 12:56:44;;;;;;;10.13;2.45;;;16.00;91.30;;;;;;5002729;28;20034;-67
2023/10/06 12:59:11;;;;;;;7.53;2.80;;;16.00;91.00;;;;;;4999084;28;20025;-68